Agra, Kansas
Current Conditions -  °F | °C
As of 11:53 AM on Sunday 25 Jan 2015 (Local Time) from KHLC Reporting Station
Clear Clear  
Wind Chill: 41°   Ceiling: Unl
Heat Index: 49°   Visibility: 10mi
Dew Point: 25°   Wind: 26mph
Humidity: 39%   Direction: 340°NNW
Pressure: 30.1"   Gusts: 33mph
Location:  39.76°N, 99.12°W
Report Text: KHLC 251753Z AUTO 34023G29KT 10SM CLR 09/M04 A3010 RMK AO2 PK WND 33033/1703 SLP194 T00941039 10094 20033 51017
Loading
Personal Weather Stations






























Interactive Weather Map New forecast layout! Learn more

10-Day Weather Forecast

Advertisements
Track Severe Weather on mobile